PWSweather.com
Personal Weather Stations
Station Observations
KVAGLENALL
West Henrico, Glen Allen, VA 23060-6503

West HenricoGlen Allen, VA 23060-6503

Lat: 37.6554, Lon: -77.5693

Elevation: 273

Station Type: Davis Vantage Pro II

Latest ConditionsUpdated 11:00:17 AM EDT Wednesday, Oct 17, 2018
Currently Today's Max Today's Min Today's Average
Temperature 62.9°F17.2°C 62.9°F17.2°C 56.4°F13.6°C 57.8°F14.3°C
Dew Point 54.1°F12.3°C 58.1°F14.5°C 54.1°F12.3°C 56.1°F13.4°C
Winds 4.0 mph WNW6.4 kmh WNW 5.0 mph -8.0 kmh - - 1.1 mph 1.8 kmh
Wind Gusts 5.1 mph8.2 kmh 6.1 mph9.8 kmh - -
Humidity 73% 97% 73% 94%
Pressure 30.12 in1020.0 mb 30.12 in1020.0 mb 30.04 in1017.3 mb -
Hour Temp Dew Point Humidity Winds Wind Gusts Pressure Precip Precip Rate Daily Precip Total
11:00 AM 62.9°F17.2°C 54.1°F12.3°C 73% 4.0 mph WNW6.4 kmh WNW 5.1 mph8.2 kmh 30.12 in1020.0 mb 0.00 in0.0 mm 0.00 in0.0 mm 0.13 in3.3 mm
10:45 AM 61.5°F16.4°C 55.6°F13.1°C 81% Calm Calm 2.0 mph3.2 kmh 30.12 in1020.0 mb 0.00 in0.0 mm 0.00 in0.0 mm 0.13 in3.3 mm
10:30 AM 60.5°F15.8°C 56.9°F13.8°C 88% 3.0 mph N4.8 kmh N 4.0 mph6.4 kmh 30.12 in1020.0 mb 0.00 in0.0 mm 0.00 in0.0 mm 0.13 in3.3 mm
10:15 AM 59.8°F15.4°C 56.9°F13.8°C 90% 2.0 mph WSW3.2 kmh WSW 2.0 mph3.2 kmh 30.12 in1020.0 mb 0.00 in0.0 mm 0.00 in0.0 mm 0.13 in3.3 mm
10:00 AM 60.0°F15.6°C 57.1°F13.9°C 90% 1.0 mph W1.6 kmh W 4.0 mph6.4 kmh 30.12 in1020.0 mb 0.00 in0.0 mm 0.00 in0.0 mm 0.13 in3.3 mm
09:45 AM 60.5°F15.8°C 57.3°F14.1°C 89% Calm Calm 2.0 mph3.2 kmh 30.12 in1020.0 mb 0.00 in0.0 mm 0.00 in0.0 mm 0.13 in3.3 mm
09:30 AM 60.7°F15.9°C 57.1°F13.9°C 88% 2.0 mph SW3.2 kmh SW 3.0 mph4.8 kmh 30.11 in1019.6 mb 0.00 in0.0 mm 0.00 in0.0 mm 0.13 in3.3 mm
09:15 AM 60.4°F15.8°C 57.8°F14.3°C 91% 2.0 mph SW3.2 kmh SW 3.0 mph4.8 kmh 30.11 in1019.6 mb 0.00 in0.0 mm 0.00 in0.0 mm 0.13 in3.3 mm
09:00 AM 59.2°F15.1°C 58.1°F14.5°C 96% Calm Calm -- 30.10 in1019.3 mb 0.00 in0.0 mm 0.00 in0.0 mm 0.13 in3.3 mm
08:45 AM 58.4°F14.7°C 57.6°F14.2°C 97% 1.0 mph SSW1.6 kmh SSW 2.0 mph3.2 kmh 30.09 in1019.0 mb 0.00 in0.0 mm 0.00 in0.0 mm 0.13 in3.3 mm
08:30 AM 57.0°F13.9°C 56.1°F13.4°C 97% 1.0 mph SW1.6 kmh SW 4.0 mph6.4 kmh 30.09 in1019.0 mb 0.00 in0.0 mm 0.00 in0.0 mm 0.13 in3.3 mm
08:15 AM 57.1°F13.9°C 56.2°F13.4°C 97% 1.0 mph W1.6 kmh W 2.0 mph3.2 kmh 30.08 in1018.6 mb 0.00 in0.0 mm 0.00 in0.0 mm 0.13 in3.3 mm
08:00 AM 57.4°F14.1°C 56.5°F13.6°C 97% Calm Calm -- 30.08 in1018.6 mb 0.00 in0.0 mm 0.00 in0.0 mm 0.13 in3.3 mm
07:45 AM 57.4°F14.1°C 56.5°F13.6°C 97% 5.0 mph E8.0 kmh E 6.1 mph9.8 kmh 30.08 in1018.6 mb 0.00 in0.0 mm 0.00 in0.0 mm 0.13 in3.3 mm
07:30 AM 57.1°F13.9°C 56.2°F13.4°C 97% 1.0 mph W1.6 kmh W 1.0 mph1.6 kmh 30.07 in1018.3 mb 0.00 in0.0 mm 0.00 in0.0 mm 0.13 in3.3 mm
07:15 AM 57.1°F13.9°C 56.2°F13.4°C 97% Calm Calm -- 30.07 in1018.3 mb 0.00 in0.0 mm 0.00 in0.0 mm 0.13 in3.3 mm
07:00 AM 56.9°F13.8°C 56.0°F13.3°C 97% Calm Calm -- 30.07 in1018.3 mb 0.00 in0.0 mm 0.00 in0.0 mm 0.13 in3.3 mm
06:45 AM 56.9°F13.8°C 55.8°F13.2°C 96% Calm Calm -- 30.07 in1018.3 mb 0.00 in0.0 mm 0.00 in0.0 mm 0.13 in3.3 mm
06:30 AM 57.1°F13.9°C 56.0°F13.3°C 96% Calm Calm -- 30.08 in1018.6 mb 0.00 in0.0 mm 0.00 in0.0 mm 0.13 in3.3 mm
06:15 AM 57.1°F13.9°C 56.0°F13.3°C 96% Calm Calm -- 30.08 in1018.6 mb 0.00 in0.0 mm 0.00 in0.0 mm 0.13 in3.3 mm
06:00 AM 57.3°F14.1°C 56.2°F13.4°C 96% Calm Calm -- 30.07 in1018.3 mb 0.00 in0.0 mm 0.00 in0.0 mm 0.13 in3.3 mm
05:45 AM 57.3°F14.1°C 56.2°F13.4°C 96% Calm Calm -- 30.08 in1018.6 mb 0.00 in0.0 mm 0.00 in0.0 mm 0.13 in3.3 mm
05:30 AM 57.3°F14.1°C 56.2°F13.4°C 96% Calm Calm -- 30.07 in1018.3 mb 0.00 in0.0 mm 0.00 in0.0 mm 0.13 in3.3 mm
05:15 AM 57.4°F14.1°C 56.3°F13.5°C 96% Calm Calm -- 30.06 in1017.9 mb 0.00 in0.0 mm 0.00 in0.0 mm 0.13 in3.3 mm
05:00 AM 57.4°F14.1°C 56.3°F13.5°C 96% 1.0 mph WSW1.6 kmh WSW 2.0 mph3.2 kmh 30.06 in1017.9 mb 0.01 in0.3 mm 0.00 in0.0 mm 0.13 in3.3 mm
04:45 AM 57.3°F14.1°C 56.2°F13.4°C 96% Calm Calm -- 30.06 in1017.9 mb 0.01 in0.3 mm 0.00 in0.0 mm 0.13 in3.3 mm
04:30 AM 57.3°F14.1°C 56.2°F13.4°C 96% 1.0 mph S1.6 kmh S 2.0 mph3.2 kmh 30.05 in1017.6 mb 0.01 in0.3 mm 0.00 in0.0 mm 0.13 in3.3 mm
04:15 AM 57.5°F14.2°C 56.4°F13.6°C 96% 3.0 mph S4.8 kmh S 6.1 mph9.8 kmh 30.04 in1017.3 mb 0.01 in0.3 mm 0.00 in0.0 mm 0.13 in3.3 mm
04:00 AM 57.5°F14.2°C 56.4°F13.6°C 96% 3.0 mph S4.8 kmh S 4.0 mph6.4 kmh 30.05 in1017.6 mb 0.01 in0.3 mm 0.00 in0.0 mm 0.13 in3.3 mm
03:45 AM 57.4°F14.1°C 56.3°F13.5°C 96% Calm Calm 1.0 mph1.6 kmh 30.05 in1017.6 mb 0.01 in0.3 mm 0.04 in1.0 mm 0.13 in3.3 mm
03:30 AM 57.4°F14.1°C 56.3°F13.5°C 96% Calm Calm 1.0 mph1.6 kmh 30.05 in1017.6 mb 0.00 in0.0 mm 0.00 in0.0 mm 0.12 in3.0 mm
03:15 AM 57.2°F14.0°C 56.1°F13.4°C 96% Calm Calm 2.0 mph3.2 kmh 30.05 in1017.6 mb 0.01 in0.3 mm 0.00 in0.0 mm 0.12 in3.0 mm
03:00 AM 57.1°F13.9°C 56.0°F13.3°C 96% 1.0 mph SSE1.6 kmh SSE 2.0 mph3.2 kmh 30.05 in1017.6 mb 0.01 in0.3 mm 0.00 in0.0 mm 0.12 in3.0 mm
02:45 AM 57.0°F13.9°C 55.9°F13.3°C 96% Calm Calm -- 30.06 in1017.9 mb 0.02 in0.5 mm 0.00 in0.0 mm 0.12 in3.0 mm
02:30 AM 56.9°F13.8°C 55.8°F13.2°C 96% Calm Calm 3.0 mph4.8 kmh 30.06 in1017.9 mb 0.02 in0.5 mm 0.00 in0.0 mm 0.12 in3.0 mm
02:15 AM 56.9°F13.8°C 55.8°F13.2°C 96% 1.0 mph S1.6 kmh S 2.0 mph3.2 kmh 30.07 in1018.3 mb 0.05 in1.3 mm 0.04 in1.0 mm 0.12 in3.0 mm
02:00 AM 56.6°F13.7°C 55.5°F13.1°C 96% Calm Calm -- 30.07 in1018.3 mb 0.04 in1.0 mm 0.00 in0.0 mm 0.11 in2.8 mm
01:45 AM 56.5°F13.6°C 55.1°F12.8°C 95% 2.0 mph S3.2 kmh S 4.0 mph6.4 kmh 30.08 in1018.6 mb 0.09 in2.3 mm 0.04 in1.0 mm 0.11 in2.8 mm
01:30 AM 56.4°F13.6°C 55.0°F12.8°C 95% 3.0 mph SW4.8 kmh SW 5.1 mph8.2 kmh 30.08 in1018.6 mb 0.08 in2.0 mm 0.00 in0.0 mm 0.10 in2.5 mm
01:15 AM 56.5°F13.6°C 55.1°F12.8°C 95% 4.0 mph SSW6.4 kmh SSW 4.0 mph6.4 kmh 30.09 in1019.0 mb 0.10 in2.5 mm 0.08 in2.0 mm 0.10 in2.5 mm
01:00 AM 56.5°F13.6°C 55.1°F12.8°C 95% 2.0 mph SSW3.2 kmh SSW 3.0 mph4.8 kmh 30.09 in1019.0 mb 0.08 in2.0 mm 0.03 in0.8 mm 0.08 in2.0 mm
12:45 AM 56.6°F13.7°C 54.9°F12.7°C 94% 1.0 mph S1.6 kmh S 2.0 mph3.2 kmh 30.09 in1019.0 mb 0.06 in1.5 mm 0.08 in2.0 mm 0.06 in1.5 mm
12:30 AM 56.7°F13.7°C 54.7°F12.6°C 93% 2.0 mph SSW3.2 kmh SSW 3.0 mph4.8 kmh 30.10 in1019.3 mb 0.04 in1.0 mm 0.00 in0.0 mm 0.04 in1.0 mm
12:15 AM 56.9°F13.8°C 54.6°F12.6°C 92% 2.0 mph S3.2 kmh S 3.0 mph4.8 kmh 30.11 in1019.6 mb 0.04 in1.0 mm 0.08 in2.0 mm 0.04 in1.0 mm
12:00 AM 57.2°F14.0°C 54.6°F12.6°C 91% 2.0 mph S3.2 kmh S 2.0 mph3.2 kmh 30.11 in1019.6 mb 0.02 in0.5 mm 0.00 in0.0 mm 0.02 in0.5 mm